sensor_id;sensor_type;location;lat;lon;timestamp;P1;durP1;ratioP1;P2;durP2;ratioP2
21507;SDS011;10915;54.352;9.074;2024-02-28T00:00:04;29.80;;;23.47;;
21507;SDS011;10915;54.352;9.074;2024-02-28T00:02:30;29.63;;;22.87;;
21507;SDS011;10915;54.352;9.074;2024-02-28T00:04:56;30.73;;;22.80;;
21507;SDS011;10915;54.352;9.074;2024-02-28T00:07:24;30.83;;;22.83;;
21507;SDS011;10915;54.352;9.074;2024-02-28T00:09:49;33.23;;;24.53;;
21507;SDS011;10915;54.352;9.074;2024-02-28T00:12:15;33.13;;;24.50;;
21507;SDS011;10915;54.352;9.074;2024-02-28T00:14:41;31.27;;;23.33;;
21507;SDS011;10915;54.352;9.074;2024-02-28T00:17:06;34.17;;;24.97;;
21507;SDS011;10915;54.352;9.074;2024-02-28T00:19:32;31.43;;;23.03;;
21507;SDS011;10915;54.352;9.074;2024-02-28T00:21:58;33.37;;;23.50;;
21507;SDS011;10915;54.352;9.074;2024-02-28T00:24:25;34.77;;;24.07;;
21507;SDS011;10915;54.352;9.074;2024-02-28T00:26:50;34.23;;;24.20;;
21507;SDS011;10915;54.352;9.074;2024-02-28T00:29:16;30.93;;;22.93;;
21507;SDS011;10915;54.352;9.074;2024-02-28T00:31:42;30.67;;;21.87;;
21507;SDS011;10915;54.352;9.074;2024-02-28T00:34:07;31.40;;;22.60;;
21507;SDS011;10915;54.352;9.074;2024-02-28T00:36:33;29.80;;;22.17;;
21507;SDS011;10915;54.352;9.074;2024-02-28T00:38:59;28.90;;;21.47;;
21507;SDS011;10915;54.352;9.074;2024-02-28T00:41:25;28.83;;;21.77;;
21507;SDS011;10915;54.352;9.074;2024-02-28T00:43:50;28.17;;;21.30;;
21507;SDS011;10915;54.352;9.074;2024-02-28T00:46:16;29.07;;;21.47;;
21507;SDS011;10915;54.352;9.074;2024-02-28T00:48:41;29.13;;;21.07;;
21507;SDS011;10915;54.352;9.074;2024-02-28T00:51:07;27.73;;;19.97;;
21507;SDS011;10915;54.352;9.074;2024-02-28T00:53:36;28.63;;;20.23;;
21507;SDS011;10915;54.352;9.074;2024-02-28T00:56:01;26.03;;;19.93;;
21507;SDS011;10915;54.352;9.074;2024-02-28T00:58:28;28.00;;;21.43;;
21507;SDS011;10915;54.352;9.074;2024-02-28T01:00:55;30.10;;;22.50;;
21507;SDS011;10915;54.352;9.074;2024-02-28T01:03:21;31.90;;;23.00;;
21507;SDS011;10915;54.352;9.074;2024-02-28T01:05:46;29.73;;;22.73;;
21507;SDS011;10915;54.352;9.074;2024-02-28T01:08:14;32.07;;;23.07;;
21507;SDS011;10915;54.352;9.074;2024-02-28T01:10:42;33.53;;;23.90;;
21507;SDS011;10915;54.352;9.074;2024-02-28T01:13:07;31.10;;;23.33;;
21507;SDS011;10915;54.352;9.074;2024-02-28T01:15:33;31.67;;;23.70;;
21507;SDS011;10915;54.352;9.074;2024-02-28T01:17:59;31.67;;;22.70;;
21507;SDS011;10915;54.352;9.074;2024-02-28T01:20:25;30.57;;;22.00;;
21507;SDS011;10915;54.352;9.074;2024-02-28T01:22:50;31.13;;;22.13;;
21507;SDS011;10915;54.352;9.074;2024-02-28T01:25:16;30.77;;;22.97;;
21507;SDS011;10915;54.352;9.074;2024-02-28T01:27:41;30.77;;;21.33;;
21507;SDS011;10915;54.352;9.074;2024-02-28T01:30:08;29.80;;;20.93;;
21507;SDS011;10915;54.352;9.074;2024-02-28T01:32:34;27.47;;;20.03;;
21507;SDS011;10915;54.352;9.074;2024-02-28T01:34:59;28.13;;;20.17;;
21507;SDS011;10915;54.352;9.074;2024-02-28T01:37:25;27.63;;;19.63;;
21507;SDS011;10915;54.352;9.074;2024-02-28T01:39:50;24.93;;;18.83;;
21507;SDS011;10915;54.352;9.074;2024-02-28T01:42:16;28.17;;;20.27;;
21507;SDS011;10915;54.352;9.074;2024-02-28T01:44:45;24.50;;;18.07;;
21507;SDS011;10915;54.352;9.074;2024-02-28T01:47:13;25.73;;;18.33;;
21507;SDS011;10915;54.352;9.074;2024-02-28T01:49:40;25.40;;;18.47;;
21507;SDS011;10915;54.352;9.074;2024-02-28T01:52:07;24.27;;;17.83;;
21507;SDS011;10915;54.352;9.074;2024-02-28T01:54:34;28.40;;;19.53;;
21507;SDS011;10915;54.352;9.074;2024-02-28T01:57:00;27.27;;;18.57;;
21507;SDS011;10915;54.352;9.074;2024-02-28T01:59:27;27.37;;;18.77;;
21507;SDS011;10915;54.352;9.074;2024-02-28T02:01:54;25.27;;;18.37;;
21507;SDS011;10915;54.352;9.074;2024-02-28T02:04:20;26.87;;;19.20;;
21507;SDS011;10915;54.352;9.074;2024-02-28T02:06:46;27.90;;;19.03;;
21507;SDS011;10915;54.352;9.074;2024-02-28T02:09:14;28.77;;;19.37;;
21507;SDS011;10915;54.352;9.074;2024-02-28T02:11:41;28.63;;;18.77;;
21507;SDS011;10915;54.352;9.074;2024-02-28T02:14:06;27.03;;;18.80;;
21507;SDS011;10915;54.352;9.074;2024-02-28T02:16:32;27.63;;;19.30;;
21507;SDS011;10915;54.352;9.074;2024-02-28T02:18:58;25.83;;;18.17;;
21507;SDS011;10915;54.352;9.074;2024-02-28T02:21:24;29.00;;;19.57;;
21507;SDS011;10915;54.352;9.074;2024-02-28T02:23:59;27.27;;;18.67;;
21507;SDS011;10915;54.352;9.074;2024-02-28T02:26:25;26.93;;;19.20;;
21507;SDS011;10915;54.352;9.074;2024-02-28T02:28:51;30.10;;;20.67;;
21507;SDS011;10915;54.352;9.074;2024-02-28T02:31:16;28.33;;;20.23;;
21507;SDS011;10915;54.352;9.074;2024-02-28T02:33:42;31.03;;;21.13;;
21507;SDS011;10915;54.352;9.074;2024-02-28T02:36:08;29.67;;;20.77;;
21507;SDS011;10915;54.352;9.074;2024-02-28T02:38:33;30.77;;;20.93;;
21507;SDS011;10915;54.352;9.074;2024-02-28T02:40:59;33.67;;;22.80;;
21507;SDS011;10915;54.352;9.074;2024-02-28T02:43:25;31.37;;;22.37;;
21507;SDS011;10915;54.352;9.074;2024-02-28T02:45:50;31.40;;;21.67;;
21507;SDS011;10915;54.352;9.074;2024-02-28T02:48:16;31.13;;;22.20;;
21507;SDS011;10915;54.352;9.074;2024-02-28T02:50:41;32.40;;;22.67;;
21507;SDS011;10915;54.352;9.074;2024-02-28T02:53:09;30.83;;;21.93;;
21507;SDS011;10915;54.352;9.074;2024-02-28T02:55:35;31.03;;;21.40;;
21507;SDS011;10915;54.352;9.074;2024-02-28T02:58:01;30.97;;;21.70;;
21507;SDS011;10915;54.352;9.074;2024-02-28T03:00:27;32.00;;;22.47;;
21507;SDS011;10915;54.352;9.074;2024-02-28T03:02:53;33.97;;;22.97;;
21507;SDS011;10915;54.352;9.074;2024-02-28T03:05:19;28.23;;;20.57;;
21507;SDS011;10915;54.352;9.074;2024-02-28T03:07:45;33.07;;;22.80;;
21507;SDS011;10915;54.352;9.074;2024-02-28T03:10:10;32.67;;;22.03;;
21507;SDS011;10915;54.352;9.074;2024-02-28T03:12:36;32.20;;;22.53;;
21507;SDS011;10915;54.352;9.074;2024-02-28T03:15:02;30.57;;;21.77;;
21507;SDS011;10915;54.352;9.074;2024-02-28T03:17:28;29.47;;;21.47;;
21507;SDS011;10915;54.352;9.074;2024-02-28T03:19:54;31.53;;;23.03;;
21507;SDS011;10915;54.352;9.074;2024-02-28T03:22:19;31.50;;;22.37;;
21507;SDS011;10915;54.352;9.074;2024-02-28T03:24:45;33.13;;;23.23;;
21507;SDS011;10915;54.352;9.074;2024-02-28T03:27:11;30.33;;;22.73;;
21507;SDS011;10915;54.352;9.074;2024-02-28T03:29:36;32.50;;;23.53;;
21507;SDS011;10915;54.352;9.074;2024-02-28T03:32:03;34.07;;;22.60;;
21507;SDS011;10915;54.352;9.074;2024-02-28T03:34:29;34.40;;;23.87;;
21507;SDS011;10915;54.352;9.074;2024-02-28T03:36:55;32.83;;;23.83;;
21507;SDS011;10915;54.352;9.074;2024-02-28T03:39:21;35.80;;;24.80;;
21507;SDS011;10915;54.352;9.074;2024-02-28T03:41:46;38.60;;;26.80;;
21507;SDS011;10915;54.352;9.074;2024-02-28T03:44:12;33.60;;;24.60;;
21507;SDS011;10915;54.352;9.074;2024-02-28T03:46:37;39.17;;;26.33;;
21507;SDS011;10915;54.352;9.074;2024-02-28T03:49:03;38.00;;;27.17;;
21507;SDS011;10915;54.352;9.074;2024-02-28T03:51:29;35.57;;;26.17;;
21507;SDS011;10915;54.352;9.074;2024-02-28T03:53:54;42.07;;;28.13;;
21507;SDS011;10915;54.352;9.074;2024-02-28T03:56:24;37.70;;;26.57;;
21507;SDS011;10915;54.352;9.074;2024-02-28T03:58:50;36.60;;;26.70;;
21507;SDS011;10915;54.352;9.074;2024-02-28T04:01:17;37.47;;;26.60;;
21507;SDS011;10915;54.352;9.074;2024-02-28T04:03:43;40.37;;;27.67;;
21507;SDS011;10915;54.352;9.074;2024-02-28T04:06:09;40.63;;;28.67;;
21507;SDS011;10915;54.352;9.074;2024-02-28T04:08:35;37.53;;;27.53;;
21507;SDS011;10915;54.352;9.074;2024-02-28T04:11:01;40.07;;;28.73;;
21507;SDS011;10915;54.352;9.074;2024-02-28T04:13:26;44.43;;;30.23;;
21507;SDS011;10915;54.352;9.074;2024-02-28T04:15:52;44.43;;;28.90;;
21507;SDS011;10915;54.352;9.074;2024-02-28T04:18:18;44.63;;;30.30;;
21507;SDS011;10915;54.352;9.074;2024-02-28T04:20:43;43.50;;;29.83;;
21507;SDS011;10915;54.352;9.074;2024-02-28T04:23:09;44.07;;;30.23;;
21507;SDS011;10915;54.352;9.074;2024-02-28T04:25:34;47.97;;;31.90;;
21507;SDS011;10915;54.352;9.074;2024-02-28T04:28:01;49.23;;;32.60;;
21507;SDS011;10915;54.352;9.074;2024-02-28T04:30:27;43.87;;;30.90;;
21507;SDS011;10915;54.352;9.074;2024-02-28T04:32:53;46.07;;;30.93;;
21507;SDS011;10915;54.352;9.074;2024-02-28T04:35:19;49.50;;;32.93;;
21507;SDS011;10915;54.352;9.074;2024-02-28T04:37:48;44.67;;;31.17;;
21507;SDS011;10915;54.352;9.074;2024-02-28T04:40:13;47.47;;;33.03;;
21507;SDS011;10915;54.352;9.074;2024-02-28T04:42:40;49.30;;;32.93;;
21507;SDS011;10915;54.352;9.074;2024-02-28T04:45:08;50.63;;;32.87;;
21507;SDS011;10915;54.352;9.074;2024-02-28T04:47:33;47.03;;;32.83;;
21507;SDS011;10915;54.352;9.074;2024-02-28T04:49:59;51.27;;;33.67;;
21507;SDS011;10915;54.352;9.074;2024-02-28T04:52:25;48.83;;;34.23;;
21507;SDS011;10915;54.352;9.074;2024-02-28T04:54:50;56.50;;;34.67;;
21507;SDS011;10915;54.352;9.074;2024-02-28T04:57:16;54.27;;;34.57;;
21507;SDS011;10915;54.352;9.074;2024-02-28T04:59:43;50.87;;;33.20;;
21507;SDS011;10915;54.352;9.074;2024-02-28T05:02:09;48.77;;;32.40;;
21507;SDS011;10915;54.352;9.074;2024-02-28T05:04:35;48.73;;;32.40;;
21507;SDS011;10915;54.352;9.074;2024-02-28T05:07:01;54.43;;;35.77;;
21507;SDS011;10915;54.352;9.074;2024-02-28T05:09:27;50.10;;;33.20;;
21507;SDS011;10915;54.352;9.074;2024-02-28T05:11:53;55.10;;;37.17;;
21507;SDS011;10915;54.352;9.074;2024-02-28T05:14:19;53.00;;;36.10;;
21507;SDS011;10915;54.352;9.074;2024-02-28T05:16:44;55.17;;;36.53;;
21507;SDS011;10915;54.352;9.074;2024-02-28T05:19:11;60.47;;;38.53;;
21507;SDS011;10915;54.352;9.074;2024-02-28T05:21:41;56.33;;;36.57;;
21507;SDS011;10915;54.352;9.074;2024-02-28T05:24:08;61.10;;;38.43;;
21507;SDS011;10915;54.352;9.074;2024-02-28T05:26:34;56.23;;;37.90;;
21507;SDS011;10915;54.352;9.074;2024-02-28T05:29:00;56.77;;;36.90;;
21507;SDS011;10915;54.352;9.074;2024-02-28T05:31:26;59.97;;;38.67;;
21507;SDS011;10915;54.352;9.074;2024-02-28T05:33:53;63.17;;;39.97;;
21507;SDS011;10915;54.352;9.074;2024-02-28T05:36:21;64.17;;;40.67;;
21507;SDS011;10915;54.352;9.074;2024-02-28T05:38:47;66.60;;;40.63;;
21507;SDS011;10915;54.352;9.074;2024-02-28T05:41:13;56.20;;;37.47;;
21507;SDS011;10915;54.352;9.074;2024-02-28T05:43:41;64.47;;;40.53;;
21507;SDS011;10915;54.352;9.074;2024-02-28T05:46:06;64.73;;;39.67;;
21507;SDS011;10915;54.352;9.074;2024-02-28T05:48:32;72.93;;;43.30;;
21507;SDS011;10915;54.352;9.074;2024-02-28T05:50:58;65.67;;;40.40;;
21507;SDS011;10915;54.352;9.074;2024-02-28T05:53:25;67.70;;;42.20;;
21507;SDS011;10915;54.352;9.074;2024-02-28T05:55:52;69.40;;;40.77;;
21507;SDS011;10915;54.352;9.074;2024-02-28T05:58:21;71.73;;;41.57;;
21507;SDS011;10915;54.352;9.074;2024-02-28T06:00:47;71.87;;;42.00;;
21507;SDS011;10915;54.352;9.074;2024-02-28T06:03:14;72.93;;;42.93;;
21507;SDS011;10915;54.352;9.074;2024-02-28T06:05:39;71.27;;;43.20;;
21507;SDS011;10915;54.352;9.074;2024-02-28T06:08:05;74.77;;;44.77;;
21507;SDS011;10915;54.352;9.074;2024-02-28T06:10:31;72.30;;;43.73;;
21507;SDS011;10915;54.352;9.074;2024-02-28T06:12:57;73.33;;;44.07;;
21507;SDS011;10915;54.352;9.074;2024-02-28T06:15:22;69.90;;;43.27;;
21507;SDS011;10915;54.352;9.074;2024-02-28T06:17:48;73.87;;;42.80;;
21507;SDS011;10915;54.352;9.074;2024-02-28T06:20:14;73.47;;;43.90;;
21507;SDS011;10915;54.352;9.074;2024-02-28T06:22:40;74.87;;;45.27;;
21507;SDS011;10915;54.352;9.074;2024-02-28T06:25:06;72.80;;;43.67;;
21507;SDS011;10915;54.352;9.074;2024-02-28T06:27:38;73.60;;;43.90;;
21507;SDS011;10915;54.352;9.074;2024-02-28T06:30:04;72.90;;;43.70;;
21507;SDS011;10915;54.352;9.074;2024-02-28T06:32:31;76.13;;;44.30;;
21507;SDS011;10915;54.352;9.074;2024-02-28T06:34:57;73.20;;;44.33;;
21507;SDS011;10915;54.352;9.074;2024-02-28T06:37:23;76.87;;;44.33;;
21507;SDS011;10915;54.352;9.074;2024-02-28T06:39:48;86.13;;;47.50;;
21507;SDS011;10915;54.352;9.074;2024-02-28T06:42:14;79.77;;;46.10;;
21507;SDS011;10915;54.352;9.074;2024-02-28T06:44:39;77.97;;;44.63;;
21507;SDS011;10915;54.352;9.074;2024-02-28T06:47:05;77.23;;;44.63;;
21507;SDS011;10915;54.352;9.074;2024-02-28T06:49:31;74.80;;;44.87;;
21507;SDS011;10915;54.352;9.074;2024-02-28T06:51:56;82.10;;;47.20;;
21507;SDS011;10915;54.352;9.074;2024-02-28T06:54:26;80.23;;;47.03;;
21507;SDS011;10915;54.352;9.074;2024-02-28T06:56:52;82.97;;;46.17;;
21507;SDS011;10915;54.352;9.074;2024-02-28T06:59:17;84.43;;;46.47;;
21507;SDS011;10915;54.352;9.074;2024-02-28T07:01:43;84.07;;;48.10;;
21507;SDS011;10915;54.352;9.074;2024-02-28T07:04:08;83.20;;;48.77;;
21507;SDS011;10915;54.352;9.074;2024-02-28T07:06:34;92.53;;;50.13;;
21507;SDS011;10915;54.352;9.074;2024-02-28T07:08:59;84.40;;;47.73;;
21507;SDS011;10915;54.352;9.074;2024-02-28T07:11:25;88.93;;;50.33;;
21507;SDS011;10915;54.352;9.074;2024-02-28T07:13:50;91.57;;;50.60;;
21507;SDS011;10915;54.352;9.074;2024-02-28T07:16:16;87.63;;;51.53;;
21507;SDS011;10915;54.352;9.074;2024-02-28T07:18:42;96.40;;;52.37;;
21507;SDS011;10915;54.352;9.074;2024-02-28T07:21:07;90.63;;;50.30;;
21507;SDS011;10915;54.352;9.074;2024-02-28T07:23:33;90.63;;;51.80;;
21507;SDS011;10915;54.352;9.074;2024-02-28T07:25:59;96.13;;;51.47;;
21507;SDS011;10915;54.352;9.074;2024-02-28T07:28:24;94.53;;;51.67;;
21507;SDS011;10915;54.352;9.074;2024-02-28T07:30:50;90.23;;;50.77;;
21507;SDS011;10915;54.352;9.074;2024-02-28T07:33:15;98.00;;;53.20;;
21507;SDS011;10915;54.352;9.074;2024-02-28T07:35:49;88.87;;;50.93;;
21507;SDS011;10915;54.352;9.074;2024-02-28T07:38:17;98.20;;;52.63;;
21507;SDS011;10915;54.352;9.074;2024-02-28T07:40:45;95.20;;;53.77;;
21507;SDS011;10915;54.352;9.074;2024-02-28T07:43:11;103.50;;;55.77;;
21507;SDS011;10915;54.352;9.074;2024-02-28T07:45:36;98.00;;;54.73;;
21507;SDS011;10915;54.352;9.074;2024-02-28T07:48:02;96.83;;;54.03;;
21507;SDS011;10915;54.352;9.074;2024-02-28T07:50:28;97.40;;;54.40;;
21507;SDS011;10915;54.352;9.074;2024-02-28T07:52:54;105.00;;;56.80;;
21507;SDS011;10915;54.352;9.074;2024-02-28T07:55:20;97.70;;;55.73;;
21507;SDS011;10915;54.352;9.074;2024-02-28T07:57:50;101.63;;;56.03;;
21507;SDS011;10915;54.352;9.074;2024-02-28T08:00:16;103.63;;;55.83;;
21507;SDS011;10915;54.352;9.074;2024-02-28T08:02:44;99.90;;;55.97;;
21507;SDS011;10915;54.352;9.074;2024-02-28T08:05:10;109.47;;;60.00;;
21507;SDS011;10915;54.352;9.074;2024-02-28T08:07:35;102.40;;;56.90;;
21507;SDS011;10915;54.352;9.074;2024-02-28T08:10:02;110.27;;;61.10;;
21507;SDS011;10915;54.352;9.074;2024-02-28T08:12:30;105.87;;;58.93;;
21507;SDS011;10915;54.352;9.074;2024-02-28T08:14:56;82.43;;;44.33;;
21507;SDS011;10915;54.352;9.074;2024-02-28T08:17:22;104.83;;;57.80;;
21507;SDS011;10915;54.352;9.074;2024-02-28T08:19:47;105.20;;;56.87;;
21507;SDS011;10915;54.352;9.074;2024-02-28T08:22:13;107.97;;;58.03;;
21507;SDS011;10915;54.352;9.074;2024-02-28T08:24:39;101.37;;;57.33;;
21507;SDS011;10915;54.352;9.074;2024-02-28T08:27:05;99.77;;;54.90;;
21507;SDS011;10915;54.352;9.074;2024-02-28T08:29:31;110.57;;;59.97;;
21507;SDS011;10915;54.352;9.074;2024-02-28T08:31:57;110.73;;;59.80;;
21507;SDS011;10915;54.352;9.074;2024-02-28T08:34:23;111.53;;;60.20;;
21507;SDS011;10915;54.352;9.074;2024-02-28T08:36:50;103.70;;;59.90;;
21507;SDS011;10915;54.352;9.074;2024-02-28T08:39:17;105.93;;;58.90;;
21507;SDS011;10915;54.352;9.074;2024-02-28T08:41:42;105.60;;;58.40;;
21507;SDS011;10915;54.352;9.074;2024-02-28T08:44:08;102.93;;;56.43;;
21507;SDS011;10915;54.352;9.074;2024-02-28T08:46:34;96.37;;;54.33;;
21507;SDS011;10915;54.352;9.074;2024-02-28T08:49:03;101.73;;;58.07;;
21507;SDS011;10915;54.352;9.074;2024-02-28T08:51:28;96.10;;;56.33;;
21507;SDS011;10915;54.352;9.074;2024-02-28T08:53:54;104.47;;;55.53;;
21507;SDS011;10915;54.352;9.074;2024-02-28T08:56:21;94.90;;;53.97;;
21507;SDS011;10915;54.352;9.074;2024-02-28T08:58:46;91.10;;;52.43;;
21507;SDS011;10915;54.352;9.074;2024-02-28T09:01:15;91.57;;;52.70;;
21507;SDS011;10915;54.352;9.074;2024-02-28T09:03:41;87.87;;;50.77;;
21507;SDS011;10915;54.352;9.074;2024-02-28T09:06:06;82.67;;;49.33;;
21507;SDS011;10915;54.352;9.074;2024-02-28T09:08:32;92.27;;;51.07;;
21507;SDS011;10915;54.352;9.074;2024-02-28T09:10:58;91.80;;;50.63;;
21507;SDS011;10915;54.352;9.074;2024-02-28T09:13:23;93.77;;;51.90;;
21507;SDS011;10915;54.352;9.074;2024-02-28T09:15:49;92.10;;;52.17;;
21507;SDS011;10915;54.352;9.074;2024-02-28T09:18:15;89.37;;;51.53;;
21507;SDS011;10915;54.352;9.074;2024-02-28T09:20:41;85.47;;;49.70;;
21507;SDS011;10915;54.352;9.074;2024-02-28T09:23:07;89.83;;;49.80;;
21507;SDS011;10915;54.352;9.074;2024-02-28T09:25:32;87.93;;;50.37;;
21507;SDS011;10915;54.352;9.074;2024-02-28T09:28:00;94.93;;;52.67;;
21507;SDS011;10915;54.352;9.074;2024-02-28T09:30:26;90.57;;;51.47;;
21507;SDS011;10915;54.352;9.074;2024-02-28T09:32:52;92.17;;;50.97;;
21507;SDS011;10915;54.352;9.074;2024-02-28T09:35:18;88.13;;;49.77;;
21507;SDS011;10915;54.352;9.074;2024-02-28T09:37:44;94.07;;;50.27;;
21507;SDS011;10915;54.352;9.074;2024-02-28T09:40:09;89.27;;;50.00;;
21507;SDS011;10915;54.352;9.074;2024-02-28T09:42:36;88.87;;;50.07;;
21507;SDS011;10915;54.352;9.074;2024-02-28T09:45:02;81.20;;;47.43;;
21507;SDS011;10915;54.352;9.074;2024-02-28T09:47:29;84.97;;;48.33;;
21507;SDS011;10915;54.352;9.074;2024-02-28T09:49:55;79.60;;;46.70;;
21507;SDS011;10915;54.352;9.074;2024-02-28T09:52:26;82.20;;;45.77;;
21507;SDS011;10915;54.352;9.074;2024-02-28T09:54:53;77.73;;;44.13;;
21507;SDS011;10915;54.352;9.074;2024-02-28T09:57:19;77.03;;;43.80;;
21507;SDS011;10915;54.352;9.074;2024-02-28T09:59:45;68.07;;;39.73;;
21507;SDS011;10915;54.352;9.074;2024-02-28T10:02:12;68.30;;;41.87;;
21507;SDS011;10915;54.352;9.074;2024-02-28T10:04:41;74.23;;;40.83;;
21507;SDS011;10915;54.352;9.074;2024-02-28T10:07:11;69.50;;;41.07;;
21507;SDS011;10915;54.352;9.074;2024-02-28T10:09:43;71.40;;;41.77;;
21507;SDS011;10915;54.352;9.074;2024-02-28T10:12:08;76.83;;;42.50;;
21507;SDS011;10915;54.352;9.074;2024-02-28T10:14:34;71.33;;;41.43;;
21507;SDS011;10915;54.352;9.074;2024-02-28T10:17:00;68.80;;;40.70;;
21507;SDS011;10915;54.352;9.074;2024-02-28T10:19:26;72.00;;;40.77;;
21507;SDS011;10915;54.352;9.074;2024-02-28T10:21:51;66.53;;;39.67;;
21507;SDS011;10915;54.352;9.074;2024-02-28T10:24:17;66.17;;;37.77;;
21507;SDS011;10915;54.352;9.074;2024-02-28T10:26:44;64.50;;;38.00;;
21507;SDS011;10915;54.352;9.074;2024-02-28T10:29:13;60.93;;;37.40;;
21507;SDS011;10915;54.352;9.074;2024-02-28T10:31:38;63.57;;;38.97;;
21507;SDS011;10915;54.352;9.074;2024-02-28T10:34:06;61.80;;;39.57;;
21507;SDS011;10915;54.352;9.074;2024-02-28T10:36:33;60.90;;;36.70;;
21507;SDS011;10915;54.352;9.074;2024-02-28T10:38:59;62.77;;;38.57;;
21507;SDS011;10915;54.352;9.074;2024-02-28T10:41:26;60.07;;;36.77;;
21507;SDS011;10915;54.352;9.074;2024-02-28T10:43:53;59.17;;;37.10;;
21507;SDS011;10915;54.352;9.074;2024-02-28T10:46:19;64.57;;;37.93;;
21507;SDS011;10915;54.352;9.074;2024-02-28T10:48:46;57.67;;;35.97;;
21507;SDS011;10915;54.352;9.074;2024-02-28T10:51:17;56.73;;;35.07;;
21507;SDS011;10915;54.352;9.074;2024-02-28T10:53:53;58.73;;;36.43;;
21507;SDS011;10915;54.352;9.074;2024-02-28T10:56:40;57.00;;;33.77;;
21507;SDS011;10915;54.352;9.074;2024-02-28T10:59:08;51.97;;;33.50;;
21507;SDS011;10915;54.352;9.074;2024-02-28T11:01:41;52.80;;;33.87;;
21507;SDS011;10915;54.352;9.074;2024-02-28T11:04:09;52.30;;;33.10;;
21507;SDS011;10915;54.352;9.074;2024-02-28T11:06:54;54.77;;;33.90;;
21507;SDS011;10915;54.352;9.074;2024-02-28T11:09:21;51.43;;;34.57;;
21507;SDS011;10915;54.352;9.074;2024-02-28T11:11:48;54.33;;;33.57;;
21507;SDS011;10915;54.352;9.074;2024-02-28T11:14:18;52.97;;;32.90;;
21507;SDS011;10915;54.352;9.074;2024-02-28T11:16:47;52.63;;;33.70;;
21507;SDS011;10915;54.352;9.074;2024-02-28T11:19:24;48.03;;;32.27;;
21507;SDS011;10915;54.352;9.074;2024-02-28T11:21:55;53.97;;;34.37;;
21507;SDS011;10915;54.352;9.074;2024-02-28T11:24:23;52.73;;;33.50;;
21507;SDS011;10915;54.352;9.074;2024-02-28T11:26:52;51.53;;;34.33;;
21507;SDS011;10915;54.352;9.074;2024-02-28T11:29:25;58.60;;;33.97;;
21507;SDS011;10915;54.352;9.074;2024-02-28T11:31:53;59.00;;;35.63;;
21507;SDS011;10915;54.352;9.074;2024-02-28T11:34:19;57.40;;;35.07;;
21507;SDS011;10915;54.352;9.074;2024-02-28T11:36:51;62.53;;;36.60;;
21507;SDS011;10915;54.352;9.074;2024-02-28T11:39:18;66.53;;;38.30;;
21507;SDS011;10915;54.352;9.074;2024-02-28T11:41:46;69.47;;;39.20;;
21507;SDS011;10915;54.352;9.074;2024-02-28T11:44:12;65.90;;;37.73;;
21507;SDS011;10915;54.352;9.074;2024-02-28T11:46:42;61.20;;;36.47;;
21507;SDS011;10915;54.352;9.074;2024-02-28T11:49:14;68.50;;;37.67;;
21507;SDS011;10915;54.352;9.074;2024-02-28T11:51:41;61.60;;;38.77;;
21507;SDS011;10915;54.352;9.074;2024-02-28T11:54:10;66.90;;;38.27;;
21507;SDS011;10915;54.352;9.074;2024-02-28T11:56:36;70.67;;;38.17;;
21507;SDS011;10915;54.352;9.074;2024-02-28T11:59:03;79.27;;;39.67;;
21507;SDS011;10915;54.352;9.074;2024-02-28T12:01:37;72.97;;;39.00;;
21507;SDS011;10915;54.352;9.074;2024-02-28T12:04:04;72.93;;;41.03;;
21507;SDS011;10915;54.352;9.074;2024-02-28T12:06:31;68.80;;;38.80;;
21507;SDS011;10915;54.352;9.074;2024-02-28T12:09:01;66.13;;;38.77;;
21507;SDS011;10915;54.352;9.074;2024-02-28T12:11:32;65.47;;;38.67;;
21507;SDS011;10915;54.352;9.074;2024-02-28T12:13:57;74.37;;;39.87;;
21507;SDS011;10915;54.352;9.074;2024-02-28T12:16:24;67.50;;;37.67;;
21507;SDS011;10915;54.352;9.074;2024-02-28T12:18:54;65.80;;;37.97;;
21507;SDS011;10915;54.352;9.074;2024-02-28T12:21:20;66.70;;;36.83;;
21507;SDS011;10915;54.352;9.074;2024-02-28T12:23:46;58.60;;;36.33;;
21507;SDS011;10915;54.352;9.074;2024-02-28T12:26:16;60.30;;;35.53;;
21507;SDS011;10915;54.352;9.074;2024-02-28T12:28:44;60.03;;;35.90;;
21507;SDS011;10915;54.352;9.074;2024-02-28T12:31:10;60.97;;;35.70;;
21507;SDS011;10915;54.352;9.074;2024-02-28T12:33:37;61.33;;;36.40;;
21507;SDS011;10915;54.352;9.074;2024-02-28T12:36:03;60.33;;;33.83;;
21507;SDS011;10915;54.352;9.074;2024-02-28T12:38:29;63.40;;;36.50;;
21507;SDS011;10915;54.352;9.074;2024-02-28T12:40:56;65.93;;;36.20;;
21507;SDS011;10915;54.352;9.074;2024-02-28T12:43:22;69.10;;;36.33;;
21507;SDS011;10915;54.352;9.074;2024-02-28T12:45:48;73.23;;;38.27;;
21507;SDS011;10915;54.352;9.074;2024-02-28T12:48:14;65.97;;;37.23;;
21507;SDS011;10915;54.352;9.074;2024-02-28T12:50:39;73.10;;;39.53;;
21507;SDS011;10915;54.352;9.074;2024-02-28T12:53:05;71.23;;;37.77;;
21507;SDS011;10915;54.352;9.074;2024-02-28T12:55:30;71.03;;;37.03;;
21507;SDS011;10915;54.352;9.074;2024-02-28T12:57:57;71.03;;;37.97;;
21507;SDS011;10915;54.352;9.074;2024-02-28T13:00:24;64.67;;;36.73;;
21507;SDS011;10915;54.352;9.074;2024-02-28T13:02:50;69.37;;;36.83;;
21507;SDS011;10915;54.352;9.074;2024-02-28T13:05:16;71.27;;;39.10;;
21507;SDS011;10915;54.352;9.074;2024-02-28T13:07:41;73.03;;;38.33;;
21507;SDS011;10915;54.352;9.074;2024-02-28T13:10:07;74.13;;;39.37;;
21507;SDS011;10915;54.352;9.074;2024-02-28T13:12:34;73.50;;;39.30;;
21507;SDS011;10915;54.352;9.074;2024-02-28T13:14:59;73.17;;;39.43;;
21507;SDS011;10915;54.352;9.074;2024-02-28T13:17:25;72.00;;;38.23;;
21507;SDS011;10915;54.352;9.074;2024-02-28T13:19:51;68.47;;;36.17;;
21507;SDS011;10915;54.352;9.074;2024-02-28T13:22:17;68.67;;;37.63;;
21507;SDS011;10915;54.352;9.074;2024-02-28T13:24:42;57.90;;;34.77;;
21507;SDS011;10915;54.352;9.074;2024-02-28T13:27:08;65.63;;;36.90;;
21507;SDS011;10915;54.352;9.074;2024-02-28T13:29:34;62.90;;;37.67;;
21507;SDS011;10915;54.352;9.074;2024-02-28T13:32:00;73.47;;;40.60;;
21507;SDS011;10915;54.352;9.074;2024-02-28T13:34:26;74.83;;;39.33;;
21507;SDS011;10915;54.352;9.074;2024-02-28T13:36:54;70.60;;;39.23;;
21507;SDS011;10915;54.352;9.074;2024-02-28T13:39:20;72.70;;;40.47;;
21507;SDS011;10915;54.352;9.074;2024-02-28T13:41:48;80.83;;;42.93;;
21507;SDS011;10915;54.352;9.074;2024-02-28T13:44:16;77.20;;;43.43;;
21507;SDS011;10915;54.352;9.074;2024-02-28T13:46:42;77.53;;;42.27;;
21507;SDS011;10915;54.352;9.074;2024-02-28T13:49:08;78.67;;;43.47;;
21507;SDS011;10915;54.352;9.074;2024-02-28T13:51:33;82.27;;;44.20;;
21507;SDS011;10915;54.352;9.074;2024-02-28T13:53:59;85.70;;;45.50;;
21507;SDS011;10915;54.352;9.074;2024-02-28T13:56:24;93.93;;;50.03;;
21507;SDS011;10915;54.352;9.074;2024-02-28T13:58:50;81.27;;;46.00;;
21507;SDS011;10915;54.352;9.074;2024-02-28T14:01:16;93.10;;;50.30;;
21507;SDS011;10915;54.352;9.074;2024-02-28T14:03:44;74.87;;;45.47;;
21507;SDS011;10915;54.352;9.074;2024-02-28T14:06:09;74.53;;;41.57;;
21507;SDS011;10915;54.352;9.074;2024-02-28T14:08:35;72.23;;;41.00;;
21507;SDS011;10915;54.352;9.074;2024-02-28T14:11:01;68.83;;;39.03;;
21507;SDS011;10915;54.352;9.074;2024-02-28T14:13:27;75.73;;;40.80;;
21507;SDS011;10915;54.352;9.074;2024-02-28T14:15:52;76.33;;;42.43;;